Flood From: 24-02-2018 06:00 Until: 25-02-2018 06:00 warning for: Flood Level: Yellow info button

Although rather usual in this region, locally or potentially dangerous phenomena are expected. (such as local winds, summer thunderstorms, rising streams or high waves) Be aware and pay attention to the latest weather updates, especially if you carry out activities exposed to weather or close to a stream or shoreline. 


Meteo18 Weather Cam more information Meteo18 Weather Cam


Thunder radar more information blitzortung!


Rain radar more information rain snow radar


Visit our other weather sites:

Template documentation
and downloads

And another site



Weather Underground History page Text

Daily Summary for October 18, 2016 Units:  Metric    English   Both
« Previous Day
Next Day »
Daily Weekly Monthly Yearly Custom
  High: Low: Average:
Temperature: -17.8 °C -15.3 °C -12.2 °C
Dew Point: -17.8 °C -15.5 °C -13.2 °C
Humidity: Humidity % 67 % 89 %
Wind Speed: 0 km/h 0 km/h 5.5 km/h
Wind Gust: 0 km/h - -
Wind:- - SW
Pressure: 0 hPa 34645.6 hPa -
Precipitation: 12.7 mm    
Historical Graphs
 
 
Tabular Data for October 18, 2016
Time Temperature Dew Point Pressure Wind Wind Speed Wind Gust Humidity Rainfall Rate (Hourly)
-17.8 °C -17.8 °C 0 hPa Calm     Humidity % 0 mm
00:02 -12 °C -12.3 °C 34669.3 hPa NNE 2.6 km/h 2.6 km/h 96 % 0 mm
00:07 -12 °C -12.3 °C 34669.3 hPa Calm   5.1 km/h 96 % 0 mm
00:12 -11.9 °C -12.2 °C 34669.3 hPa Calm   5.1 km/h 97 % 0 mm
00:17 -12 °C -12.3 °C 34669.3 hPa NNE 2.6 km/h 5.1 km/h 96 % 0 mm
00:22 -12.2 °C -12.6 °C 34669.3 hPa NNE 5.1 km/h 5.1 km/h 95 % 0 mm
00:27 -12.2 °C -12.6 °C 34669.3 hPa NNW 5.1 km/h 5.1 km/h 96 % 0 mm
00:32 -12.3 °C -12.6 °C 34669.3 hPa NNE 2.6 km/h 7.7 km/h 96 % 0 mm
00:42 -12.4 °C -12.7 °C 34669.3 hPa North 2.6 km/h 7.7 km/h 96 % 0 mm
00:52 -12.4 °C -12.7 °C 34669.3 hPa Calm   7.7 km/h 96 % 0 mm
00:57 -12.4 °C -12.8 °C 34669.3 hPa Calm   2.6 km/h 96 % 0 mm
01:07 -12.4 °C -12.7 °C 34669.3 hPa Calm   2.6 km/h 97 % 0 mm
01:12 -12.4 °C -12.7 °C 34669.3 hPa Calm     97 % 0 mm
01:17 -12.6 °C -12.9 °C 34669.3 hPa Calm     96 % 0 mm
01:22 -12.6 °C -12.8 °C 34669.3 hPa Calm     97 % 0 mm
01:27 -12.5 °C -12.8 °C 34669.3 hPa Calm     97 % 0 mm
01:32 -12.4 °C -12.7 °C 34682.8 hPa Calm     97 % 0 mm
01:37 -12.6 °C -12.9 °C 34682.8 hPa Calm     96 % 0 mm
01:42 -12.7 °C -13 °C 34682.8 hPa Calm     96 % 0 mm
01:47 -12.7 °C -13.1 °C 34682.8 hPa Calm     96 % 0 mm
01:52 -12.8 °C -13.2 °C 34682.8 hPa Calm     96 % 0 mm
01:57 -13 °C -13.3 °C 34682.8 hPa Calm     96 % 0 mm
02:02 -13.1 °C -13.4 °C 34682.8 hPa Calm     96 % 0 mm
02:07 -13.2 °C -13.6 °C 34682.8 hPa Calm     96 % 0 mm
02:12 -13.2 °C -13.6 °C 34682.8 hPa Calm     96 % 0 mm
02:17 -13.2 °C -13.4 °C 34682.8 hPa Calm     97 % 0 mm
02:22 -13.2 °C -13.4 °C 34682.8 hPa Calm     97 % 0 mm
02:27 -13.2 °C -13.4 °C 34682.8 hPa Calm     97 % 0 mm
02:32 -13.2 °C -13.4 °C 34682.8 hPa Calm     97 % 0 mm
02:37 -13.1 °C -13.3 °C 34682.8 hPa Calm     97 % 0 mm
02:42 -13.2 °C -13.4 °C 34682.8 hPa Calm     97 % 0 mm
02:47 -13.2 °C -13.4 °C 34682.8 hPa Calm     97 % 0 mm
02:52 -13.3 °C -13.5 °C 34682.8 hPa Calm     97 % 0 mm
02:57 -13.4 °C -13.6 °C 34682.8 hPa Calm     97 % 0 mm
03:02 -13.4 °C -13.8 °C 34682.8 hPa Calm     96 % 0 mm
03:07 -13.6 °C -13.9 °C 34682.8 hPa Calm     96 % 0 mm
03:17 -13.8 °C -14.1 °C 34682.8 hPa Calm     96 % 0 mm
03:22 -13.8 °C -14.1 °C 34682.8 hPa Calm     97 % 0 mm
03:27 -13.9 °C -14.1 °C 34682.8 hPa Calm     97 % 0 mm
03:32 -13.9 °C -14.2 °C 34682.8 hPa Calm     97 % 0 mm
03:37 -14 °C -14.2 °C 34682.8 hPa Calm     97 % 0 mm
03:42 -14 °C -14.2 °C 34682.8 hPa Calm     97 % 0 mm
03:47 -14.1 °C -14.3 °C 34682.8 hPa Calm     97 % 7.62 mm
03:52 -14.1 °C -14.3 °C 34682.8 hPa Calm     97 % 7.62 mm
03:57 -14.1 °C -14.3 °C 34682.8 hPa Calm     97 % 7.62 mm
04:12 -14.2 °C -14.4 °C 34682.8 hPa Calm     97 % 7.62 mm
04:17 -14.3 °C -14.6 °C 34682.8 hPa Calm     97 % 7.62 mm
04:22 -14.4 °C -14.6 °C 34682.8 hPa Calm     97 % 7.62 mm
04:27 -14.3 °C -14.6 °C 34682.8 hPa Calm     97 % 7.62 mm
04:32 -14.2 °C -14.4 °C 34682.8 hPa Calm     97 % 7.62 mm
04:37 -14.2 °C -14.4 °C 34682.8 hPa Calm     97 % 7.62 mm
04:42 -14.3 °C -14.5 °C 34682.8 hPa Calm     97 % 7.62 mm
04:47 -14.3 °C -14.5 °C 34682.8 hPa Calm     97 % 0 mm
04:52 -14.3 °C -14.6 °C 34682.8 hPa Calm     97 % 0 mm
05:02 -14.3 °C -14.6 °C 34682.8 hPa Calm     97 % 0 mm
05:12 -14.4 °C -14.6 °C 34682.8 hPa Calm     97 % 0 mm
05:17 -14.4 °C -14.6 °C 34682.8 hPa Calm     97 % 0 mm
05:22 -14.4 °C -14.6 °C 34682.8 hPa Calm     97 % 0 mm
05:32 -14.5 °C -14.7 °C 34682.8 hPa Calm     97 % 0 mm
05:42 -14.6 °C -14.8 °C 34669.3 hPa Calm     97 % 0 mm
05:52 -14.4 °C -14.7 °C 34682.8 hPa Calm     97 % 0 mm
06:02 -14.6 °C -14.8 °C 34682.8 hPa Calm     97 % 0 mm
06:12 -14.7 °C -14.9 °C 34682.8 hPa Calm     97 % 0 mm
06:17 -14.7 °C -14.9 °C 34682.8 hPa Calm     97 % 0 mm
06:22 -14.7 °C -14.9 °C 34682.8 hPa Calm     97 % 0 mm
06:32 -14.8 °C -15 °C 34682.8 hPa Calm     97 % 0 mm
06:42 -14.7 °C -14.9 °C 34682.8 hPa Calm     97 % 0 mm
06:47 -14.7 °C -14.9 °C 34682.8 hPa Calm     97 % 0 mm
06:52 -14.8 °C -15.1 °C 34682.8 hPa Calm     97 % 0 mm
07:02 -15 °C -15.2 °C 34682.8 hPa Calm     97 % 0 mm
07:12 -15.1 °C -15.3 °C 34682.8 hPa Calm     97 % 0 mm
07:17 -15.1 °C -15.3 °C 34682.8 hPa Calm     97 % 0 mm
07:22 -15.1 °C -15.3 °C 34682.8 hPa Calm     97 % 0 mm
07:32 -15.1 °C -15.3 °C 34682.8 hPa Calm     97 % 0 mm
07:42 -15.1 °C -15.3 °C 34682.8 hPa Calm     97 % 0 mm
07:52 -15.1 °C -15.3 °C 34682.8 hPa Calm     97 % 0 mm
08:02 -15.1 °C -15.3 °C 34682.8 hPa Calm     97 % 0 mm
08:12 -15.2 °C -15.4 °C 34682.8 hPa Calm     97 % 0 mm
08:17 -15.2 °C -15.4 °C 34693 hPa Calm     97 % 0 mm
08:22 -15.2 °C -15.4 °C 34693 hPa Calm     97 % 0 mm
08:32 -15.2 °C -15.4 °C 34693 hPa Calm     97 % 0 mm
08:42 -15.2 °C -15.4 °C 34693 hPa Calm     97 % 0 mm
08:47 -15.3 °C -15.5 °C 34693 hPa SSW 2.6 km/h 2.6 km/h 97 % 0 mm
08:52 -15.2 °C -15.4 °C 34693 hPa South 2.6 km/h 2.6 km/h 97 % 0 mm
08:57 -15.2 °C -15.4 °C 34693 hPa SSE 2.6 km/h 2.6 km/h 97 % 0 mm
09:02 -15.2 °C -15.4 °C 34703.1 hPa SW 2.6 km/h 2.6 km/h 97 % 0 mm
09:12 -15.1 °C -15.3 °C 34693 hPa Calm   7.7 km/h 97 % 0 mm
09:17 -15.1 °C -15.3 °C 34703.1 hPa Calm   7.7 km/h 97 % 0 mm
09:22 -15.1 °C -15.3 °C 34703.1 hPa Calm   7.7 km/h 97 % 0 mm
09:32 -14.9 °C -15.2 °C 34703.1 hPa SSW 2.6 km/h 5.1 km/h 97 % 0 mm
09:42 -14.8 °C -14.9 °C 34703.1 hPa Calm   7.7 km/h 98 % 0 mm
09:52 -14.6 °C -14.8 °C 34703.1 hPa SW 2.6 km/h 7.7 km/h 98 % 0 mm
10:02 -14.6 °C -14.7 °C 34716.7 hPa SSW 2.6 km/h 10.3 km/h 98 % 0 mm
10:12 -14.4 °C -14.6 °C 34716.7 hPa SW 2.6 km/h 10.3 km/h 98 % 0 mm
10:17 -14.3 °C -14.5 °C 34716.7 hPa SSW 5.1 km/h 10.3 km/h 98 % 0 mm
10:22 -14.2 °C -14.4 °C 34716.7 hPa SW 5.1 km/h 10.3 km/h 98 % 0 mm
10:32 -14 °C -14.2 °C 34726.8 hPa SW 2.6 km/h 7.7 km/h 98 % 0 mm
10:42 -13.8 °C -14 °C 34726.8 hPa SSW 7.7 km/h 7.7 km/h 98 % 0 mm
10:52 -13.7 °C -13.8 °C 34716.7 hPa South 2.6 km/h 10.3 km/h 98 % 0 mm
10:57 -13.6 °C -13.7 °C 34726.8 hPa South 5.1 km/h 10.3 km/h 98 % 0 mm
11:02 -13.5 °C -13.7 °C 34726.8 hPa SSW 5.1 km/h 10.3 km/h 98 % 0 mm
11:12 -13.3 °C -13.4 °C 34726.8 hPa SSW 7.7 km/h 10.3 km/h 98 % 0 mm
11:17 -13.2 °C -13.4 °C 34726.8 hPa Calm   10.3 km/h 98 % 0 mm
11:32 -12.8 °C -13 °C 34726.8 hPa SSW 2.6 km/h 10.3 km/h 98 % 0 mm
11:42 -12.6 °C -12.8 °C 34726.8 hPa SSE 5.1 km/h 12.9 km/h 98 % 0 mm
11:52 -12.4 °C -12.6 °C 34726.8 hPa SSW 7.7 km/h 15.6 km/h 98 % 0 mm
11:57 -12.3 °C -12.4 °C 34726.8 hPa SW 5.1 km/h 15.6 km/h 98 % 0 mm
12:02 -12.1 °C -12.3 °C 34726.8 hPa SSW 10.3 km/h 15.6 km/h 98 % 0 mm
12:12 -12.1 °C -12.2 °C 34726.8 hPa South 2.6 km/h 18.2 km/h 98 % 0 mm
12:17 -12 °C -12.2 °C 34726.8 hPa SSW 5.1 km/h 18.2 km/h 98 % 0 mm
12:22 -11.9 °C -12.1 °C 34716.7 hPa South 5.1 km/h 18.2 km/h 98 % 0 mm
12:27 -11.8 °C -12 °C 34726.8 hPa SW 10.3 km/h 18.2 km/h 98 % 0 mm
12:32 -11.7 °C -12 °C 34716.7 hPa South 10.3 km/h 18.2 km/h 97 % 0 mm
12:37 -11.7 °C -11.9 °C 34726.8 hPa SSW 12.9 km/h 18.2 km/h 97 % 0 mm
12:42 -11.6 °C -11.9 °C 34716.7 hPa SW 20.8 km/h 20.8 km/h 97 % 0 mm
12:52 -11.5 °C -11.8 °C 34716.7 hPa SSW 12.9 km/h 25.9 km/h 97 % 0 mm
12:57 -11.4 °C -11.7 °C 34716.7 hPa WSW 18.2 km/h 28.5 km/h 97 % 0 mm
13:02 -11.4 °C -11.7 °C 34716.7 hPa SSW 10.3 km/h 28.5 km/h 97 % 0 mm
13:12 -11.3 °C -11.6 °C 34716.7 hPa SSW 15.6 km/h 25.9 km/h 97 % 0 mm
13:17 -11.3 °C -11.7 °C 34716.7 hPa SSW 10.3 km/h 25.9 km/h 96 % 0 mm
13:22 -11.2 °C -11.4 °C 34703.1 hPa SSW 7.7 km/h 25.9 km/h 97 % 0 mm
13:32 -11 °C -11.3 °C 34716.7 hPa West 5.1 km/h 25.9 km/h 96 % 0 mm
13:37 -10.9 °C -11.3 °C 34703.1 hPa WSW 7.7 km/h 25.9 km/h 96 % 0 mm
13:47 -10.8 °C -11.3 °C 34703.1 hPa West 18.2 km/h 18.2 km/h 94 % 0 mm
13:52 -10.7 °C -11.4 °C 34703.1 hPa West 10.3 km/h 18.2 km/h 92 % 0 mm
13:57 -10.6 °C -11.4 °C 34703.1 hPa WNW 15.6 km/h 23.3 km/h 91 % 0 mm
14:02 -10.4 °C -11.2 °C 34703.1 hPa WSW 15.6 km/h 23.3 km/h 91 % 0 mm
14:12 -10.2 °C -11.3 °C 34703.1 hPa WSW 10.3 km/h 23.3 km/h 88 % 0 mm
14:17 -10.1 °C -11.4 °C 34703.1 hPa SW 12.9 km/h 23.3 km/h 86 % 0 mm
14:22 -9.9 °C -11.3 °C 34703.1 hPa West 12.9 km/h 20.8 km/h 85 % 0 mm
14:27 -9.8 °C -11.6 °C 34693 hPa SW 7.7 km/h 18.2 km/h 81 % 0 mm
14:32 -9.6 °C -11.4 °C 34693 hPa WSW 15.6 km/h 18.2 km/h 81 % 0 mm
14:37 -9.5 °C -11.1 °C 34693 hPa WSW 18.2 km/h 20.8 km/h 83 % 0 mm
14:42 -9.5 °C -11.1 °C 34693 hPa WSW 10.3 km/h 20.8 km/h 83 % 0 mm
14:47 -9.5 °C -11.9 °C 34693 hPa WSW 10.3 km/h 20.8 km/h 75 % 0 mm
14:52 -9.6 °C -12.3 °C 34693 hPa West 23.3 km/h 23.3 km/h 73 % 0 mm
14:57 -9.8 °C -12.6 °C 34693 hPa West 10.3 km/h 25.9 km/h 72 % 0 mm
15:02 -9.9 °C -12.4 °C 34693 hPa WSW 15.6 km/h 25.9 km/h 74 % 0 mm
15:07 -9.9 °C -12.5 °C 34693 hPa WSW 2.6 km/h 23.3 km/h 74 % 0 mm
15:12 -9.9 °C -12.4 °C 34682.8 hPa SW 5.1 km/h 20.8 km/h 74 % 0 mm
15:17 -9.8 °C -12.2 °C 34682.8 hPa West 12.9 km/h 18.2 km/h 76 % 0 mm
15:22 -9.7 °C -12.6 °C 34682.8 hPa West 18.2 km/h 20.8 km/h 71 % 0 mm
15:37 -9.7 °C -12.4 °C 34682.8 hPa WNW 20.8 km/h 23.3 km/h 72 % 0 mm
15:42 -9.6 °C -12.3 °C 34682.8 hPa West 5.1 km/h 23.3 km/h 72 % 0 mm
15:47 -9.4 °C -12.3 °C 34682.8 hPa West 18.2 km/h 28.5 km/h 71 % 0 mm
15:52 -9.6 °C -12.6 °C 34682.8 hPa WSW 23.3 km/h 28.5 km/h 70 % 0 mm
15:57 -9.5 °C -12.4 °C 34682.8 hPa West 12.9 km/h 31.1 km/h 71 % 0 mm
16:02 -9.4 °C -12.5 °C 34682.8 hPa West 10.3 km/h 31.1 km/h 69 % 0 mm
16:07 -9.4 °C -12.8 °C 34682.8 hPa West 28.5 km/h 31.1 km/h 67 % 0 mm
16:12 -9.4 °C -12.7 °C 34682.8 hPa West 15.6 km/h 33.6 km/h 68 % 7.62 mm
16:17 -9.4 °C -12.7 °C 34682.8 hPa West 15.6 km/h 33.6 km/h 68 % 7.62 mm
16:22 -9.6 °C -12.8 °C 34669.3 hPa West 5.1 km/h 33.6 km/h 68 % 7.62 mm
16:27 -9.6 °C -12.7 °C 34669.3 hPa West 12.9 km/h 25.9 km/h 69 % 7.62 mm
16:32 -9.6 °C -12.7 °C 34682.8 hPa West 18.2 km/h 25.9 km/h 69 % 7.62 mm
16:37 -9.7 °C -12.9 °C 34669.3 hPa WSW 20.8 km/h 20.8 km/h 68 % 7.62 mm
16:42 -9.8 °C -12.9 °C 34682.8 hPa West 20.8 km/h 31.1 km/h 69 % 7.62 mm
16:52 -9.9 °C -12.7 °C 34669.3 hPa West 10.3 km/h 31.1 km/h 72 % 7.62 mm
16:57 -9.9 °C -12.7 °C 34669.3 hPa West 10.3 km/h 28.5 km/h 72 % 7.62 mm
17:12 -10.1 °C -12.6 °C 34659.1 hPa WSW 2.6 km/h 15.6 km/h 74 % 0 mm
17:17 -10.1 °C -12.6 °C 34659.1 hPa WNW 5.1 km/h 10.3 km/h 74 % 0 mm
17:22 -10.1 °C -12.5 °C 34659.1 hPa WSW 10.3 km/h 10.3 km/h 75 % 0 mm
17:32 -10.1 °C -12.6 °C 34659.1 hPa SW 5.1 km/h 15.6 km/h 74 % 0 mm
17:37 -10.1 °C -12.5 °C 34659.1 hPa SW 7.7 km/h 15.6 km/h 75 % 0 mm
17:42 -9.9 °C -12.4 °C 34659.1 hPa WSW 10.3 km/h 15.6 km/h 75 % 0 mm
17:52 -9.9 °C -12.6 °C 34645.6 hPa SW 5.1 km/h 18.2 km/h 73 % 0 mm
17:57 -9.9 °C -12.6 °C 34645.6 hPa West 7.7 km/h 18.2 km/h 73 % 0 mm
18:02 -9.9 °C -12.4 °C 34645.6 hPa WSW 12.9 km/h 18.2 km/h 74 % 0 mm
18:07 -9.9 °C -12.5 °C 34645.6 hPa SSW 7.7 km/h 18.2 km/h 74 % 0 mm
18:12 -9.9 °C -12.5 °C 34645.6 hPa WSW 15.6 km/h 18.2 km/h 74 % 0 mm
18:17 -10 °C -12.6 °C 34645.6 hPa West 10.3 km/h 18.2 km/h 74 % 0 mm
18:22 -10.1 °C -12.6 °C 34645.6 hPa SW 10.3 km/h 18.2 km/h 74 % 0 mm
18:27 -10.1 °C -12.6 °C 34645.6 hPa SW 10.3 km/h 18.2 km/h 75 % 0 mm
18:32 -10.2 °C -12.6 °C 34645.6 hPa SW 7.7 km/h 20.8 km/h 76 % 0 mm
18:37 -10.3 °C -12.6 °C 34645.6 hPa SW 15.6 km/h 20.8 km/h 77 % 0 mm
18:42 -10.4 °C -12.5 °C 34645.6 hPa WSW 12.9 km/h 18.2 km/h 78 % 0 mm
18:52 -10.5 °C -12.5 °C 34645.6 hPa SW 10.3 km/h 18.2 km/h 79 % 0 mm
18:57 -10.6 °C -12.5 °C 34645.6 hPa WSW 12.9 km/h 18.2 km/h 80 % 0 mm
19:02 -10.7 °C -12.4 °C 34645.6 hPa SW 2.6 km/h 18.2 km/h 81 % 0 mm
19:12 -10.8 °C -12.4 °C 34645.6 hPa SW 10.3 km/h 18.2 km/h 82 % 0 mm
19:17 -10.8 °C -12.5 °C 34645.6 hPa SW 5.1 km/h 18.2 km/h 82 % 0 mm
19:22 -10.9 °C -12.4 °C 34645.6 hPa SW 7.7 km/h 20.8 km/h 83 % 0 mm
19:32 -10.9 °C -12.5 °C 34645.6 hPa SW 15.6 km/h 20.8 km/h 83 % 0 mm
19:37 -10.9 °C -12.5 °C 34645.6 hPa WSW 15.6 km/h 23.3 km/h 83 % 0 mm
19:42 -10.9 °C -12.5 °C 34645.6 hPa SW 7.7 km/h 23.3 km/h 83 % 0 mm
19:47 -11 °C -12.4 °C 34645.6 hPa SW 5.1 km/h 23.3 km/h 84 % 0 mm
19:52 -11.1 °C -12.5 °C 34645.6 hPa WSW 10.3 km/h 23.3 km/h 84 % 0 mm
19:57 -11.1 °C -12.4 °C 34645.6 hPa SW 7.7 km/h 23.3 km/h 85 % 0 mm
20:02 -11.2 °C -12.5 °C 34645.6 hPa SW 7.7 km/h 23.3 km/h 85 % 0 mm
20:12 -11.1 °C -12.4 °C 34645.6 hPa WSW 10.3 km/h 25.9 km/h 85 % 0 mm
20:17 -11.1 °C -12.4 °C 34645.6 hPa WSW 5.1 km/h 20.8 km/h 85 % 0 mm
20:22 -11.1 °C -12.4 °C 34645.6 hPa SW 7.7 km/h 20.8 km/h 85 % 0 mm
20:42 -11.2 °C -12.5 °C 34645.6 hPa SW 2.6 km/h 25.9 km/h 85 % 0 mm
20:47 -11.2 °C -12.5 °C 34645.6 hPa WSW 7.7 km/h 25.9 km/h 85 % 0 mm
20:52 -11.2 °C -12.5 °C 34645.6 hPa SW 5.1 km/h 25.9 km/h 86 % 0 mm
21:02 -11.3 °C -12.6 °C 34645.6 hPa WSW 7.7 km/h 15.6 km/h 86 % 0 mm
21:12 -11.3 °C -12.6 °C 34645.6 hPa WSW 12.9 km/h 18.2 km/h 86 % 0 mm
21:17 -11.3 °C -12.6 °C 34645.6 hPa WSW 7.7 km/h 18.2 km/h 86 % 0 mm
21:22 -11.3 °C -12.6 °C 34645.6 hPa WSW 5.1 km/h 15.6 km/h 86 % 0 mm
21:27 -11.3 °C -12.5 °C 34645.6 hPa WSW 7.7 km/h 15.6 km/h 87 % 0 mm
21:32 -11.4 °C -12.6 °C 34645.6 hPa SW 7.7 km/h 15.6 km/h 87 % 0 mm
21:37 -11.4 °C -12.6 °C 34645.6 hPa SW 7.7 km/h 12.9 km/h 87 % 0 mm
21:42 -11.4 °C -12.6 °C 34645.6 hPa SW 5.1 km/h 12.9 km/h 87 % 0 mm
21:47 -11.5 °C -12.7 °C 34645.6 hPa SW 5.1 km/h 15.6 km/h 87 % 0 mm
21:57 -11.6 °C -12.6 °C 34645.6 hPa SW 5.1 km/h 15.6 km/h 88 % 0 mm
22:02 -11.6 °C -12.6 °C 34645.6 hPa SW 2.6 km/h 15.6 km/h 88 % 0 mm
22:12 -11.6 °C -12.6 °C 34645.6 hPa WSW 5.1 km/h 10.3 km/h 88 % 0 mm
22:17 -11.6 °C -12.6 °C 34645.6 hPa West 2.6 km/h 10.3 km/h 88 % 0 mm
22:22 -11.6 °C -12.6 °C 34645.6 hPa Calm   10.3 km/h 88 % 0 mm
22:32 -11.6 °C -12.7 °C 34645.6 hPa West 2.6 km/h 10.3 km/h 88 % 0 mm
22:37 -11.7 °C -12.7 °C 34645.6 hPa WSW 2.6 km/h 7.7 km/h 89 % 0 mm
22:42 -11.8 °C -12.7 °C 34645.6 hPa WSW 5.1 km/h 7.7 km/h 89 % 0 mm
22:47 -11.8 °C -12.7 °C 34645.6 hPa WSW 5.1 km/h 7.7 km/h 89 % 0 mm
22:52 -11.8 °C -12.7 °C 34645.6 hPa WSW 2.6 km/h 7.7 km/h 89 % 0 mm
23:02 -11.8 °C -12.7 °C 34645.6 hPa WSW 2.6 km/h 7.7 km/h 89 % 0 mm
23:07 -11.8 °C -12.8 °C 34645.6 hPa West 5.1 km/h 5.1 km/h 88 % 0 mm
23:12 -11.8 °C -12.8 °C 34645.6 hPa WSW 5.1 km/h 5.1 km/h 88 % 0 mm
23:17 -11.8 °C -12.8 °C 34645.6 hPa WSW 2.6 km/h 5.1 km/h 88 % 0 mm
23:22 -11.7 °C -12.8 °C 34645.6 hPa West 2.6 km/h 5.1 km/h 88 % 0 mm
23:32 -11.8 °C -12.8 °C 34645.6 hPa WSW 2.6 km/h 7.7 km/h 88 % 0 mm
23:37 -11.8 °C -12.8 °C 34645.6 hPa WSW 5.1 km/h 7.7 km/h 88 % 0 mm
23:42 -11.8 °C -12.8 °C 34645.6 hPa WSW 5.1 km/h 5.1 km/h 88 % 0 mm
23:47 -11.7 °C -12.8 °C 34645.6 hPa West 2.6 km/h 7.7 km/h 88 % 0 mm
23:52 -11.7 °C -12.8 °C 34645.6 hPa West 5.1 km/h 10.3 km/h 88 % 0 mm
23:57 -11.7 °C -12.8 °C 34645.6 hPa NW 7.7 km/h 10.3 km/h 88 % 0 mm
Meteo18
Compliments of Weather Underground - 4 mb

Script developed by  Jim McMurry - jmcmurry@mwt.net Adapted for the template by  Wim van der Kuil - Leuven-Template.eu

You find our weather info also at:

European Weather Network

Weather Underground

Equipment we use:

Weather-station
Davis Vue

Weather-program
Meteobridge

Weather-server
Raspberry PI 2 B+

Provider
1 and 1

Davis Vue

Meteobridge

Raspberry PI 2 B+

1 and 1